Terminal Aerodrome Forecast
Issued by NWS

Home | Current Version | Previous Version | Text Only | Print | Product List | Glossary Off
Versions: 1 2 3 4 5 6 7 8 9 10 11 12 13 14 15 16 17 18 19 20 21 22 23 24 25 26 27 28 29 30 31 32 33 34 35 36 37 38 39 40 41

000
FTUS43 KGRB 232300
TAFRHI
TAF
KRHI 232325Z 2400/2424 02004KT 3SM BR OVC008
      TEMPO 2400/2404 1SM -SNDZ BR OVC003
     FM240400 01005KT 4SM BR OVC006
      TEMPO 2404/2408 1SM -FZDZSN BR OVC003
     FM241400 01005KT 4SM -SN BR SCT003 OVC009
     FM241800 36006KT P6SM -SN SCT006 OVC012=

USA.gov is the U.S. government's official web portal to all federal, state and local government web resources and services.